sensor_id;sensor_type;location;lat;lon;timestamp;temperature;humidity
37794;DHT22;23632;48.826;15.176;2023-07-20T00:02:09;26.70;65.00
37794;DHT22;23632;48.826;15.176;2023-07-20T00:04:36;26.70;65.10
37794;DHT22;23632;48.826;15.176;2023-07-20T00:07:04;26.70;65.10
37794;DHT22;23632;48.826;15.176;2023-07-20T00:09:32;26.60;65.10
37794;DHT22;23632;48.826;15.176;2023-07-20T00:11:59;26.60;65.10
37794;DHT22;23632;48.826;15.176;2023-07-20T00:14:27;26.60;65.10
37794;DHT22;23632;48.826;15.176;2023-07-20T00:16:56;26.60;65.10
37794;DHT22;23632;48.826;15.176;2023-07-20T00:19:27;26.60;65.10
37794;DHT22;23632;48.826;15.176;2023-07-20T00:21:55;26.60;65.10
37794;DHT22;23632;48.826;15.176;2023-07-20T00:24:23;26.60;65.10
37794;DHT22;23632;48.826;15.176;2023-07-20T00:26:50;26.60;65.00
37794;DHT22;23632;48.826;15.176;2023-07-20T00:29:18;26.50;64.80
37794;DHT22;23632;48.826;15.176;2023-07-20T00:31:46;26.60;64.90
37794;DHT22;23632;48.826;15.176;2023-07-20T00:34:14;26.50;64.80
37794;DHT22;23632;48.826;15.176;2023-07-20T00:36:41;26.50;65.20
37794;DHT22;23632;48.826;15.176;2023-07-20T00:39:09;26.50;65.20
37794;DHT22;23632;48.826;15.176;2023-07-20T00:41:36;26.50;65.30
37794;DHT22;23632;48.826;15.176;2023-07-20T00:44:05;26.50;65.30
37794;DHT22;23632;48.826;15.176;2023-07-20T00:46:32;26.40;65.20
37794;DHT22;23632;48.826;15.176;2023-07-20T00:49:00;26.40;66.30
37794;DHT22;23632;48.826;15.176;2023-07-20T00:51:28;26.40;65.60
37794;DHT22;23632;48.826;15.176;2023-07-20T00:53:55;26.40;65.70
37794;DHT22;23632;48.826;15.176;2023-07-20T00:56:22;26.40;65.90
37794;DHT22;23632;48.826;15.176;2023-07-20T00:58:51;26.40;65.90
37794;DHT22;23632;48.826;15.176;2023-07-20T01:01:22;26.40;65.70
37794;DHT22;23632;48.826;15.176;2023-07-20T01:03:49;26.40;65.90
37794;DHT22;23632;48.826;15.176;2023-07-20T01:09:17;26.50;66.00
37794;DHT22;23632;48.826;15.176;2023-07-20T01:12:21;26.40;65.90
37794;DHT22;23632;48.826;15.176;2023-07-20T01:14:54;26.40;65.90
37794;DHT22;23632;48.826;15.176;2023-07-20T01:17:21;26.40;65.70
37794;DHT22;23632;48.826;15.176;2023-07-20T01:19:48;26.40;65.70
37794;DHT22;23632;48.826;15.176;2023-07-20T01:34:00;26.30;66.00
37794;DHT22;23632;48.826;15.176;2023-07-20T01:36:30;26.40;65.90
37794;DHT22;23632;48.826;15.176;2023-07-20T01:39:01;26.30;65.70
37794;DHT22;23632;48.826;15.176;2023-07-20T01:41:31;26.30;65.60
37794;DHT22;23632;48.826;15.176;2023-07-20T01:43:59;26.20;65.80
37794;DHT22;23632;48.826;15.176;2023-07-20T01:46:27;26.20;65.70
37794;DHT22;23632;48.826;15.176;2023-07-20T01:48:54;26.20;66.00
37794;DHT22;23632;48.826;15.176;2023-07-20T01:51:22;26.20;66.00
37794;DHT22;23632;48.826;15.176;2023-07-20T01:53:49;26.20;66.30
37794;DHT22;23632;48.826;15.176;2023-07-20T01:56:16;26.20;66.40
37794;DHT22;23632;48.826;15.176;2023-07-20T01:58:43;26.20;66.50
37794;DHT22;23632;48.826;15.176;2023-07-20T02:01:10;26.20;66.50
37794;DHT22;23632;48.826;15.176;2023-07-20T02:03:38;26.20;66.50
37794;DHT22;23632;48.826;15.176;2023-07-20T02:06:05;26.20;66.40
37794;DHT22;23632;48.826;15.176;2023-07-20T02:08:32;26.20;66.40
37794;DHT22;23632;48.826;15.176;2023-07-20T02:10:59;26.20;66.30
37794;DHT22;23632;48.826;15.176;2023-07-20T02:13:26;26.20;66.20
37794;DHT22;23632;48.826;15.176;2023-07-20T02:15:54;26.20;66.30
37794;DHT22;23632;48.826;15.176;2023-07-20T02:18:21;26.20;66.40
37794;DHT22;23632;48.826;15.176;2023-07-20T02:20:48;26.20;66.70
37794;DHT22;23632;48.826;15.176;2023-07-20T02:23:15;26.20;66.80
37794;DHT22;23632;48.826;15.176;2023-07-20T02:25:43;26.20;66.80
37794;DHT22;23632;48.826;15.176;2023-07-20T02:28:13;26.20;66.90
37794;DHT22;23632;48.826;15.176;2023-07-20T02:30:41;26.20;66.90
37794;DHT22;23632;48.826;15.176;2023-07-20T02:33:09;26.20;66.90
37794;DHT22;23632;48.826;15.176;2023-07-20T02:35:36;26.20;66.60
37794;DHT22;23632;48.826;15.176;2023-07-20T02:38:03;26.20;66.70
37794;DHT22;23632;48.826;15.176;2023-07-20T02:40:30;26.30;66.80
37794;DHT22;23632;48.826;15.176;2023-07-20T02:42:57;26.20;66.50
37794;DHT22;23632;48.826;15.176;2023-07-20T02:45:24;26.20;66.70
37794;DHT22;23632;48.826;15.176;2023-07-20T02:47:51;26.20;66.70
37794;DHT22;23632;48.826;15.176;2023-07-20T02:50:18;26.20;66.80
37794;DHT22;23632;48.826;15.176;2023-07-20T02:52:46;26.20;66.90
37794;DHT22;23632;48.826;15.176;2023-07-20T02:55:13;26.30;66.70
37794;DHT22;23632;48.826;15.176;2023-07-20T02:57:40;26.20;66.40
37794;DHT22;23632;48.826;15.176;2023-07-20T03:00:08;26.20;66.40
37794;DHT22;23632;48.826;15.176;2023-07-20T03:02:35;26.20;66.60
37794;DHT22;23632;48.826;15.176;2023-07-20T03:05:03;26.20;66.70
37794;DHT22;23632;48.826;15.176;2023-07-20T03:07:33;26.20;66.50
37794;DHT22;23632;48.826;15.176;2023-07-20T03:10:01;26.20;66.50
37794;DHT22;23632;48.826;15.176;2023-07-20T03:12:29;26.20;66.50
37794;DHT22;23632;48.826;15.176;2023-07-20T03:14:56;26.10;66.20
37794;DHT22;23632;48.826;15.176;2023-07-20T03:17:25;26.10;66.30
37794;DHT22;23632;48.826;15.176;2023-07-20T03:19:52;26.10;66.40
37794;DHT22;23632;48.826;15.176;2023-07-20T03:22:19;26.10;66.70
37794;DHT22;23632;48.826;15.176;2023-07-20T03:24:48;26.00;66.70
37794;DHT22;23632;48.826;15.176;2023-07-20T03:27:15;26.10;66.80
37794;DHT22;23632;48.826;15.176;2023-07-20T03:29:42;26.10;66.90
37794;DHT22;23632;48.826;15.176;2023-07-20T03:32:11;26.00;66.80
37794;DHT22;23632;48.826;15.176;2023-07-20T03:34:38;26.10;67.00
37794;DHT22;23632;48.826;15.176;2023-07-20T03:37:05;26.00;67.10
37794;DHT22;23632;48.826;15.176;2023-07-20T03:39:33;26.10;66.90
37794;DHT22;23632;48.826;15.176;2023-07-20T03:42:00;26.00;67.00
37794;DHT22;23632;48.826;15.176;2023-07-20T03:44:27;26.10;67.10
37794;DHT22;23632;48.826;15.176;2023-07-20T03:46:54;26.10;67.10
37794;DHT22;23632;48.826;15.176;2023-07-20T03:49:22;26.00;67.00
37794;DHT22;23632;48.826;15.176;2023-07-20T03:51:49;26.00;66.70
37794;DHT22;23632;48.826;15.176;2023-07-20T03:54:16;26.00;66.90
37794;DHT22;23632;48.826;15.176;2023-07-20T03:56:43;26.00;66.90
37794;DHT22;23632;48.826;15.176;2023-07-20T03:59:10;26.00;66.90
37794;DHT22;23632;48.826;15.176;2023-07-20T04:01:38;26.00;66.90
37794;DHT22;23632;48.826;15.176;2023-07-20T04:04:08;26.00;66.70
37794;DHT22;23632;48.826;15.176;2023-07-20T04:06:35;26.00;66.90
37794;DHT22;23632;48.826;15.176;2023-07-20T04:09:03;26.00;67.10
37794;DHT22;23632;48.826;15.176;2023-07-20T04:11:31;26.00;67.20
37794;DHT22;23632;48.826;15.176;2023-07-20T04:13:59;26.00;67.00
37794;DHT22;23632;48.826;15.176;2023-07-20T04:16:26;26.00;66.90
37794;DHT22;23632;48.826;15.176;2023-07-20T04:18:57;26.00;68.00
37794;DHT22;23632;48.826;15.176;2023-07-20T04:21:27;26.00;67.50
37794;DHT22;23632;48.826;15.176;2023-07-20T04:23:55;26.00;67.50
37794;DHT22;23632;48.826;15.176;2023-07-20T04:26:23;26.00;67.40
37794;DHT22;23632;48.826;15.176;2023-07-20T04:28:51;26.00;67.30
37794;DHT22;23632;48.826;15.176;2023-07-20T04:31:38;26.00;67.50
37794;DHT22;23632;48.826;15.176;2023-07-20T04:34:05;26.00;68.60
37794;DHT22;23632;48.826;15.176;2023-07-20T04:36:34;26.00;67.50
37794;DHT22;23632;48.826;15.176;2023-07-20T04:39:03;26.00;67.20
37794;DHT22;23632;48.826;15.176;2023-07-20T04:41:42;26.00;67.00
37794;DHT22;23632;48.826;15.176;2023-07-20T04:44:09;26.00;66.90
37794;DHT22;23632;48.826;15.176;2023-07-20T04:46:37;26.00;67.10
37794;DHT22;23632;48.826;15.176;2023-07-20T04:49:04;26.00;67.30
37794;DHT22;23632;48.826;15.176;2023-07-20T04:51:35;26.00;66.80
37794;DHT22;23632;48.826;15.176;2023-07-20T04:54:03;26.00;66.90
37794;DHT22;23632;48.826;15.176;2023-07-20T04:56:34;26.00;67.00
37794;DHT22;23632;48.826;15.176;2023-07-20T04:59:05;26.00;67.30
37794;DHT22;23632;48.826;15.176;2023-07-20T05:01:32;26.00;67.30
37794;DHT22;23632;48.826;15.176;2023-07-20T05:03:59;26.00;67.30
37794;DHT22;23632;48.826;15.176;2023-07-20T05:06:26;26.00;67.30
37794;DHT22;23632;48.826;15.176;2023-07-20T05:08:53;26.00;67.50
37794;DHT22;23632;48.826;15.176;2023-07-20T05:11:21;25.90;67.50
37794;DHT22;23632;48.826;15.176;2023-07-20T05:13:48;26.00;67.70
37794;DHT22;23632;48.826;15.176;2023-07-20T05:16:16;26.00;67.90
37794;DHT22;23632;48.826;15.176;2023-07-20T05:18:45;26.00;68.00
37794;DHT22;23632;48.826;15.176;2023-07-20T05:21:13;26.00;68.00
37794;DHT22;23632;48.826;15.176;2023-07-20T05:23:41;26.00;68.00
37794;DHT22;23632;48.826;15.176;2023-07-20T05:26:08;26.00;67.80
37794;DHT22;23632;48.826;15.176;2023-07-20T05:28:36;26.00;67.80
37794;DHT22;23632;48.826;15.176;2023-07-20T05:31:03;26.10;67.70
37794;DHT22;23632;48.826;15.176;2023-07-20T05:33:30;26.00;67.70
37794;DHT22;23632;48.826;15.176;2023-07-20T05:35:58;26.10;68.00
37794;DHT22;23632;48.826;15.176;2023-07-20T05:38:25;26.10;67.70
37794;DHT22;23632;48.826;15.176;2023-07-20T05:40:59;26.10;67.60
37794;DHT22;23632;48.826;15.176;2023-07-20T05:43:30;26.10;67.70
37794;DHT22;23632;48.826;15.176;2023-07-20T05:45:58;26.10;67.50
37794;DHT22;23632;48.826;15.176;2023-07-20T05:48:25;26.10;67.60
37794;DHT22;23632;48.826;15.176;2023-07-20T05:50:52;26.10;67.50
37794;DHT22;23632;48.826;15.176;2023-07-20T05:53:19;26.10;67.40
37794;DHT22;23632;48.826;15.176;2023-07-20T05:55:52;26.10;67.20
37794;DHT22;23632;48.826;15.176;2023-07-20T05:58:20;26.10;67.40
37794;DHT22;23632;48.826;15.176;2023-07-20T06:00:48;26.10;67.60
37794;DHT22;23632;48.826;15.176;2023-07-20T06:03:16;26.10;67.50
37794;DHT22;23632;48.826;15.176;2023-07-20T06:05:43;26.20;67.50
37794;DHT22;23632;48.826;15.176;2023-07-20T06:08:10;26.20;67.40
37794;DHT22;23632;48.826;15.176;2023-07-20T06:10:38;26.20;67.50
37794;DHT22;23632;48.826;15.176;2023-07-20T06:13:05;26.20;67.50
37794;DHT22;23632;48.826;15.176;2023-07-20T06:15:33;26.20;67.30
37794;DHT22;23632;48.826;15.176;2023-07-20T06:18:05;26.20;67.20
37794;DHT22;23632;48.826;15.176;2023-07-20T06:20:32;26.20;67.20
37794;DHT22;23632;48.826;15.176;2023-07-20T06:22:59;26.20;67.20
37794;DHT22;23632;48.826;15.176;2023-07-20T06:25:26;26.20;67.10
37794;DHT22;23632;48.826;15.176;2023-07-20T06:27:55;26.20;66.90
37794;DHT22;23632;48.826;15.176;2023-07-20T06:30:23;26.20;68.00
37794;DHT22;23632;48.826;15.176;2023-07-20T06:32:51;26.20;67.20
37794;DHT22;23632;48.826;15.176;2023-07-20T06:35:19;26.20;67.20
37794;DHT22;23632;48.826;15.176;2023-07-20T06:37:46;26.30;67.20
37794;DHT22;23632;48.826;15.176;2023-07-20T06:40:13;26.30;67.30
37794;DHT22;23632;48.826;15.176;2023-07-20T06:42:43;26.30;67.30
37794;DHT22;23632;48.826;15.176;2023-07-20T06:45:13;26.20;67.20
37794;DHT22;23632;48.826;15.176;2023-07-20T06:47:41;26.30;67.30
37794;DHT22;23632;48.826;15.176;2023-07-20T06:50:09;26.30;67.30
37794;DHT22;23632;48.826;15.176;2023-07-20T06:52:43;26.30;67.40
37794;DHT22;23632;48.826;15.176;2023-07-20T06:55:10;26.30;67.30
37794;DHT22;23632;48.826;15.176;2023-07-20T06:57:37;26.30;67.30
37794;DHT22;23632;48.826;15.176;2023-07-20T07:00:05;26.40;67.40
37794;DHT22;23632;48.826;15.176;2023-07-20T07:02:33;26.40;67.20
37794;DHT22;23632;48.826;15.176;2023-07-20T07:05:02;26.40;67.20
37794;DHT22;23632;48.826;15.176;2023-07-20T07:07:46;26.40;67.20
37794;DHT22;23632;48.826;15.176;2023-07-20T07:10:13;26.40;68.00
37794;DHT22;23632;48.826;15.176;2023-07-20T07:12:41;26.40;67.10
37794;DHT22;23632;48.826;15.176;2023-07-20T07:15:09;26.40;67.00
37794;DHT22;23632;48.826;15.176;2023-07-20T07:17:37;26.40;67.00
37794;DHT22;23632;48.826;15.176;2023-07-20T07:20:06;26.40;67.20
37794;DHT22;23632;48.826;15.176;2023-07-20T07:22:37;26.50;67.20
37794;DHT22;23632;48.826;15.176;2023-07-20T07:25:04;26.50;67.10
37794;DHT22;23632;48.826;15.176;2023-07-20T07:27:32;26.50;67.10
37794;DHT22;23632;48.826;15.176;2023-07-20T07:29:59;26.50;67.10
37794;DHT22;23632;48.826;15.176;2023-07-20T07:32:26;26.50;67.10
37794;DHT22;23632;48.826;15.176;2023-07-20T07:34:53;26.50;67.10
37794;DHT22;23632;48.826;15.176;2023-07-20T07:37:20;26.50;67.10
37794;DHT22;23632;48.826;15.176;2023-07-20T07:39:48;26.50;67.20
37794;DHT22;23632;48.826;15.176;2023-07-20T07:42:15;26.60;67.10
37794;DHT22;23632;48.826;15.176;2023-07-20T07:44:42;26.60;67.10
37794;DHT22;23632;48.826;15.176;2023-07-20T07:47:09;26.60;67.00
37794;DHT22;23632;48.826;15.176;2023-07-20T07:49:37;26.60;67.00
37794;DHT22;23632;48.826;15.176;2023-07-20T07:52:04;26.60;67.00
37794;DHT22;23632;48.826;15.176;2023-07-20T07:54:31;26.60;66.70
37794;DHT22;23632;48.826;15.176;2023-07-20T07:56:58;26.60;66.90
37794;DHT22;23632;48.826;15.176;2023-07-20T07:59:26;26.60;66.80
37794;DHT22;23632;48.826;15.176;2023-07-20T08:01:53;26.60;66.90
37794;DHT22;23632;48.826;15.176;2023-07-20T08:04:20;26.60;66.80
37794;DHT22;23632;48.826;15.176;2023-07-20T08:06:47;26.60;66.90
37794;DHT22;23632;48.826;15.176;2023-07-20T08:09:14;26.70;66.90
37794;DHT22;23632;48.826;15.176;2023-07-20T08:11:41;26.70;66.90
37794;DHT22;23632;48.826;15.176;2023-07-20T08:14:08;26.70;66.90
37794;DHT22;23632;48.826;15.176;2023-07-20T08:16:35;26.70;66.90
37794;DHT22;23632;48.826;15.176;2023-07-20T08:19:03;26.70;66.80
37794;DHT22;23632;48.826;15.176;2023-07-20T08:21:30;26.70;66.90
37794;DHT22;23632;48.826;15.176;2023-07-20T08:23:57;26.70;66.80
37794;DHT22;23632;48.826;15.176;2023-07-20T08:26:24;26.80;66.70
37794;DHT22;23632;48.826;15.176;2023-07-20T08:28:52;26.80;66.60
37794;DHT22;23632;48.826;15.176;2023-07-20T08:31:19;26.80;66.50
37794;DHT22;23632;48.826;15.176;2023-07-20T08:33:47;26.80;66.40
37794;DHT22;23632;48.826;15.176;2023-07-20T08:36:14;26.80;66.60
37794;DHT22;23632;48.826;15.176;2023-07-20T08:38:42;26.80;66.50
37794;DHT22;23632;48.826;15.176;2023-07-20T08:41:09;26.80;66.30
37794;DHT22;23632;48.826;15.176;2023-07-20T08:43:37;26.80;66.30
37794;DHT22;23632;48.826;15.176;2023-07-20T08:46:08;26.80;66.40
37794;DHT22;23632;48.826;15.176;2023-07-20T08:48:39;26.80;66.20
37794;DHT22;23632;48.826;15.176;2023-07-20T08:51:07;26.80;66.30
37794;DHT22;23632;48.826;15.176;2023-07-20T08:53:34;26.80;66.20
37794;DHT22;23632;48.826;15.176;2023-07-20T08:56:02;26.80;66.20
37794;DHT22;23632;48.826;15.176;2023-07-20T08:58:30;26.80;66.10
37794;DHT22;23632;48.826;15.176;2023-07-20T09:00:58;26.80;66.20
37794;DHT22;23632;48.826;15.176;2023-07-20T09:03:28;26.80;66.30
37794;DHT22;23632;48.826;15.176;2023-07-20T09:05:55;26.80;66.30
37794;DHT22;23632;48.826;15.176;2023-07-20T09:08:22;26.80;66.30
37794;DHT22;23632;48.826;15.176;2023-07-20T09:10:49;26.80;66.30
37794;DHT22;23632;48.826;15.176;2023-07-20T09:13:17;26.90;66.30
37794;DHT22;23632;48.826;15.176;2023-07-20T09:15:47;26.90;66.30
37794;DHT22;23632;48.826;15.176;2023-07-20T09:18:27;26.90;66.30
37794;DHT22;23632;48.826;15.176;2023-07-20T09:21:00;26.90;66.30
37794;DHT22;23632;48.826;15.176;2023-07-20T09:23:33;26.90;66.20
37794;DHT22;23632;48.826;15.176;2023-07-20T09:26:10;26.90;66.10
37794;DHT22;23632;48.826;15.176;2023-07-20T09:28:57;26.90;66.20
37794;DHT22;23632;48.826;15.176;2023-07-20T09:31:24;26.90;66.00
37794;DHT22;23632;48.826;15.176;2023-07-20T09:33:53;26.90;67.00
37794;DHT22;23632;48.826;15.176;2023-07-20T09:36:27;26.90;66.10
37794;DHT22;23632;48.826;15.176;2023-07-20T09:38:59;26.90;66.20
37794;DHT22;23632;48.826;15.176;2023-07-20T09:41:29;26.90;66.10
37794;DHT22;23632;48.826;15.176;2023-07-20T09:44:00;26.90;66.00
37794;DHT22;23632;48.826;15.176;2023-07-20T09:46:49;26.90;66.10
37794;DHT22;23632;48.826;15.176;2023-07-20T09:49:19;26.90;66.00
37794;DHT22;23632;48.826;15.176;2023-07-20T09:51:50;26.90;65.90
37794;DHT22;23632;48.826;15.176;2023-07-20T09:54:21;26.90;65.60
37794;DHT22;23632;48.826;15.176;2023-07-20T09:56:50;27.00;65.60
37794;DHT22;23632;48.826;15.176;2023-07-20T09:59:19;27.00;65.40
37794;DHT22;23632;48.826;15.176;2023-07-20T10:01:46;27.00;65.50
37794;DHT22;23632;48.826;15.176;2023-07-20T10:04:16;27.00;65.40
37794;DHT22;23632;48.826;15.176;2023-07-20T10:06:47;27.00;65.10
37794;DHT22;23632;48.826;15.176;2023-07-20T10:09:15;27.00;65.00
37794;DHT22;23632;48.826;15.176;2023-07-20T10:11:49;27.00;65.00
37794;DHT22;23632;48.826;15.176;2023-07-20T10:14:41;27.00;64.60
37794;DHT22;23632;48.826;15.176;2023-07-20T10:17:13;27.00;64.40
37794;DHT22;23632;48.826;15.176;2023-07-20T10:19:50;27.00;64.60
37794;DHT22;23632;48.826;15.176;2023-07-20T10:22:26;27.00;64.40
37794;DHT22;23632;48.826;15.176;2023-07-20T10:24:54;27.00;64.30
37794;DHT22;23632;48.826;15.176;2023-07-20T10:27:23;27.00;64.60
37794;DHT22;23632;48.826;15.176;2023-07-20T10:29:51;27.10;64.40
37794;DHT22;23632;48.826;15.176;2023-07-20T10:32:23;27.00;64.30
37794;DHT22;23632;48.826;15.176;2023-07-20T10:34:53;27.10;64.50
37794;DHT22;23632;48.826;15.176;2023-07-20T10:40:41;27.10;64.20
37794;DHT22;23632;48.826;15.176;2023-07-20T10:43:09;27.10;64.30
37794;DHT22;23632;48.826;15.176;2023-07-20T10:48:24;27.10;64.60
37794;DHT22;23632;48.826;15.176;2023-07-20T10:51:12;27.10;64.60
37794;DHT22;23632;48.826;15.176;2023-07-20T10:53:40;27.10;64.50
37794;DHT22;23632;48.826;15.176;2023-07-20T10:56:21;27.20;64.80
37794;DHT22;23632;48.826;15.176;2023-07-20T10:58:54;27.20;64.80
37794;DHT22;23632;48.826;15.176;2023-07-20T11:01:28;27.20;64.80
37794;DHT22;23632;48.826;15.176;2023-07-20T11:04:00;27.20;64.70
37794;DHT22;23632;48.826;15.176;2023-07-20T11:11:39;27.20;64.70
37794;DHT22;23632;48.826;15.176;2023-07-20T11:14:25;27.30;64.80
37794;DHT22;23632;48.826;15.176;2023-07-20T11:16:53;27.30;64.80
37794;DHT22;23632;48.826;15.176;2023-07-20T11:19:24;27.30;64.80
37794;DHT22;23632;48.826;15.176;2023-07-20T11:21:56;27.30;64.80
37794;DHT22;23632;48.826;15.176;2023-07-20T11:24:30;27.30;64.90
37794;DHT22;23632;48.826;15.176;2023-07-20T11:26:58;27.40;65.00
37794;DHT22;23632;48.826;15.176;2023-07-20T11:29:25;27.40;65.00
37794;DHT22;23632;48.826;15.176;2023-07-20T11:31:57;27.40;65.00
37794;DHT22;23632;48.826;15.176;2023-07-20T11:34:29;27.40;64.90
37794;DHT22;23632;48.826;15.176;2023-07-20T11:36:57;27.40;64.90
37794;DHT22;23632;48.826;15.176;2023-07-20T11:39:27;27.40;64.80
37794;DHT22;23632;48.826;15.176;2023-07-20T11:41:56;27.40;64.80
37794;DHT22;23632;48.826;15.176;2023-07-20T11:44:28;27.50;64.80
37794;DHT22;23632;48.826;15.176;2023-07-20T11:47:07;27.50;64.60
37794;DHT22;23632;48.826;15.176;2023-07-20T11:49:43;27.50;64.50
37794;DHT22;23632;48.826;15.176;2023-07-20T11:52:15;27.50;64.40
37794;DHT22;23632;48.826;15.176;2023-07-20T11:54:44;27.50;64.30
37794;DHT22;23632;48.826;15.176;2023-07-20T11:57:19;27.50;64.40
37794;DHT22;23632;48.826;15.176;2023-07-20T11:59:56;27.50;64.30
37794;DHT22;23632;48.826;15.176;2023-07-20T12:02:28;27.50;64.60
37794;DHT22;23632;48.826;15.176;2023-07-20T12:04:56;27.50;64.60
37794;DHT22;23632;48.826;15.176;2023-07-20T12:07:27;27.50;64.70
37794;DHT22;23632;48.826;15.176;2023-07-20T12:10:11;27.50;64.60
37794;DHT22;23632;48.826;15.176;2023-07-20T12:12:40;27.50;64.20
37794;DHT22;23632;48.826;15.176;2023-07-20T12:15:22;27.50;64.20
37794;DHT22;23632;48.826;15.176;2023-07-20T12:17:52;27.50;63.80
37794;DHT22;23632;48.826;15.176;2023-07-20T12:20:36;27.50;64.00
37794;DHT22;23632;48.826;15.176;2023-07-20T12:23:12;27.50;64.00
37794;DHT22;23632;48.826;15.176;2023-07-20T12:25:43;27.60;64.00
37794;DHT22;23632;48.826;15.176;2023-07-20T12:28:13;27.60;64.30
37794;DHT22;23632;48.826;15.176;2023-07-20T12:30:43;27.60;64.00
37794;DHT22;23632;48.826;15.176;2023-07-20T12:33:14;27.60;63.90
37794;DHT22;23632;48.826;15.176;2023-07-20T12:35:43;27.60;64.00
37794;DHT22;23632;48.826;15.176;2023-07-20T12:38:10;27.60;63.80
37794;DHT22;23632;48.826;15.176;2023-07-20T12:40:38;27.60;63.70
37794;DHT22;23632;48.826;15.176;2023-07-20T12:43:05;27.60;63.60
37794;DHT22;23632;48.826;15.176;2023-07-20T12:45:33;27.60;63.80
37794;DHT22;23632;48.826;15.176;2023-07-20T12:48:00;27.60;63.70
37794;DHT22;23632;48.826;15.176;2023-07-20T12:50:27;27.50;63.50
37794;DHT22;23632;48.826;15.176;2023-07-20T12:52:54;27.60;63.60
37794;DHT22;23632;48.826;15.176;2023-07-20T12:55:22;27.50;63.60
37794;DHT22;23632;48.826;15.176;2023-07-20T12:57:49;27.60;63.80
37794;DHT22;23632;48.826;15.176;2023-07-20T13:00:16;27.60;63.80
37794;DHT22;23632;48.826;15.176;2023-07-20T13:02:44;27.50;63.70
37794;DHT22;23632;48.826;15.176;2023-07-20T13:05:11;27.50;63.70
37794;DHT22;23632;48.826;15.176;2023-07-20T13:07:39;27.50;63.60
37794;DHT22;23632;48.826;15.176;2023-07-20T13:10:11;27.50;63.60
37794;DHT22;23632;48.826;15.176;2023-07-20T13:12:38;27.50;63.70
37794;DHT22;23632;48.826;15.176;2023-07-20T13:15:07;27.60;63.90
37794;DHT22;23632;48.826;15.176;2023-07-20T13:17:36;27.60;63.80
37794;DHT22;23632;48.826;15.176;2023-07-20T13:20:08;27.60;63.90
37794;DHT22;23632;48.826;15.176;2023-07-20T13:22:38;27.60;63.70
37794;DHT22;23632;48.826;15.176;2023-07-20T13:25:07;27.60;63.90
37794;DHT22;23632;48.826;15.176;2023-07-20T13:27:34;27.70;63.60
37794;DHT22;23632;48.826;15.176;2023-07-20T13:30:05;27.70;63.60
37794;DHT22;23632;48.826;15.176;2023-07-20T13:32:36;27.70;63.60
37794;DHT22;23632;48.826;15.176;2023-07-20T13:35:07;27.80;63.50
37794;DHT22;23632;48.826;15.176;2023-07-20T13:37:34;27.80;63.30
37794;DHT22;23632;48.826;15.176;2023-07-20T13:40:02;27.90;63.20
37794;DHT22;23632;48.826;15.176;2023-07-20T13:42:33;28.00;63.30
37794;DHT22;23632;48.826;15.176;2023-07-20T13:45:01;28.10;63.30
37794;DHT22;23632;48.826;15.176;2023-07-20T13:47:28;28.10;63.10
37794;DHT22;23632;48.826;15.176;2023-07-20T13:49:56;28.20;63.00
37794;DHT22;23632;48.826;15.176;2023-07-20T13:52:26;28.20;63.10
37794;DHT22;23632;48.826;15.176;2023-07-20T13:54:56;28.30;63.00
37794;DHT22;23632;48.826;15.176;2023-07-20T13:57:23;28.30;62.70
37794;DHT22;23632;48.826;15.176;2023-07-20T13:59:50;28.40;62.40
37794;DHT22;23632;48.826;15.176;2023-07-20T14:02:18;28.40;62.50
37794;DHT22;23632;48.826;15.176;2023-07-20T14:04:48;28.40;62.40
37794;DHT22;23632;48.826;15.176;2023-07-20T14:07:16;28.50;62.50
37794;DHT22;23632;48.826;15.176;2023-07-20T14:09:44;28.50;62.10
37794;DHT22;23632;48.826;15.176;2023-07-20T14:12:13;28.50;62.20
37794;DHT22;23632;48.826;15.176;2023-07-20T14:14:42;28.60;62.50
37794;DHT22;23632;48.826;15.176;2023-07-20T14:17:10;28.70;61.90
37794;DHT22;23632;48.826;15.176;2023-07-20T14:19:37;28.70;61.60
37794;DHT22;23632;48.826;15.176;2023-07-20T14:22:05;28.70;61.60
37794;DHT22;23632;48.826;15.176;2023-07-20T14:24:32;28.80;61.90
37794;DHT22;23632;48.826;15.176;2023-07-20T14:27:00;28.80;61.50
37794;DHT22;23632;48.826;15.176;2023-07-20T14:29:28;28.80;61.30
37794;DHT22;23632;48.826;15.176;2023-07-20T14:31:59;28.90;61.10
37794;DHT22;23632;48.826;15.176;2023-07-20T14:34:27;28.90;61.30
37794;DHT22;23632;48.826;15.176;2023-07-20T14:36:54;29.00;61.10
37794;DHT22;23632;48.826;15.176;2023-07-20T14:39:21;29.10;61.30
37794;DHT22;23632;48.826;15.176;2023-07-20T14:41:49;29.10;60.90
37794;DHT22;23632;48.826;15.176;2023-07-20T14:44:17;29.10;61.10
37794;DHT22;23632;48.826;15.176;2023-07-20T14:46:44;29.20;60.90
37794;DHT22;23632;48.826;15.176;2023-07-20T14:49:28;29.20;61.00
37794;DHT22;23632;48.826;15.176;2023-07-20T14:51:55;29.30;60.90
37794;DHT22;23632;48.826;15.176;2023-07-20T14:54:25;29.30;60.70
37794;DHT22;23632;48.826;15.176;2023-07-20T14:56:53;29.40;60.30
37794;DHT22;23632;48.826;15.176;2023-07-20T14:59:20;29.40;60.70
37794;DHT22;23632;48.826;15.176;2023-07-20T15:01:47;29.50;60.20
37794;DHT22;23632;48.826;15.176;2023-07-20T15:04:15;29.50;60.10
37794;DHT22;23632;48.826;15.176;2023-07-20T15:06:42;29.50;60.30
37794;DHT22;23632;48.826;15.176;2023-07-20T15:09:10;29.60;60.30
37794;DHT22;23632;48.826;15.176;2023-07-20T15:11:37;29.60;60.50
37794;DHT22;23632;48.826;15.176;2023-07-20T15:14:04;29.60;60.20
37794;DHT22;23632;48.826;15.176;2023-07-20T15:16:31;29.70;60.20
37794;DHT22;23632;48.826;15.176;2023-07-20T15:18:58;29.70;60.10
37794;DHT22;23632;48.826;15.176;2023-07-20T15:21:26;29.70;60.20
37794;DHT22;23632;48.826;15.176;2023-07-20T15:23:57;29.70;60.40
37794;DHT22;23632;48.826;15.176;2023-07-20T15:26:25;29.70;60.30
37794;DHT22;23632;48.826;15.176;2023-07-20T15:28:52;29.70;60.10
37794;DHT22;23632;48.826;15.176;2023-07-20T15:31:19;29.70;60.30
37794;DHT22;23632;48.826;15.176;2023-07-20T15:34:07;29.80;60.20
37794;DHT22;23632;48.826;15.176;2023-07-20T15:36:34;29.80;60.40
37794;DHT22;23632;48.826;15.176;2023-07-20T15:39:01;29.80;60.20
37794;DHT22;23632;48.826;15.176;2023-07-20T15:41:28;29.80;60.20
37794;DHT22;23632;48.826;15.176;2023-07-20T15:43:56;29.90;60.30
37794;DHT22;23632;48.826;15.176;2023-07-20T15:49:07;29.80;60.00
37794;DHT22;23632;48.826;15.176;2023-07-20T15:51:36;29.80;60.10
37794;DHT22;23632;48.826;15.176;2023-07-20T15:54:04;29.80;61.00
37794;DHT22;23632;48.826;15.176;2023-07-20T15:56:35;29.80;60.20